createdAt,value
2022-08-01T00:01:01.964Z,19.71
2022-08-01T00:03:29.860Z,19.57
2022-08-01T00:05:57.789Z,19.65
2022-08-01T00:08:25.704Z,19.49
2022-08-01T00:10:53.634Z,19.63
2022-08-01T00:13:21.489Z,19.34
2022-08-01T00:15:53.832Z,19.27
2022-08-01T00:18:23.809Z,19.17
2022-08-01T00:20:51.735Z,19.09
2022-08-01T00:23:19.637Z,19.18
2022-08-01T00:25:47.528Z,18.98
2022-08-01T00:28:15.535Z,19.20
2022-08-01T00:30:43.694Z,18.88
2022-08-01T00:33:11.682Z,18.94
2022-08-01T00:35:41.113Z,19.17
2022-08-01T00:38:09.016Z,19.07
2022-08-01T00:40:36.902Z,19.14
2022-08-01T00:43:04.991Z,19.06
2022-08-01T00:45:32.879Z,19.06
2022-08-01T00:48:00.767Z,19.25
2022-08-01T00:50:29.088Z,19.15
2022-08-01T00:53:00.820Z,18.35
2022-08-01T00:55:30.019Z,18.65
2022-08-01T00:58:03.407Z,18.99
2022-08-01T01:00:53.258Z,19.09
2022-08-01T01:03:29.371Z,19.00
2022-08-01T01:06:16.901Z,17.88
2022-08-01T01:08:56.383Z,18.99
2022-08-01T01:11:30.957Z,18.96
2022-08-01T01:14:06.527Z,18.89
2022-08-01T01:16:36.035Z,18.77
2022-08-01T01:19:06.478Z,18.87
2022-08-01T01:21:49.858Z,18.91
2022-08-01T01:24:30.185Z,18.56
2022-08-01T01:27:08.604Z,18.64
2022-08-01T01:29:59.593Z,18.68
2022-08-01T01:32:35.435Z,18.82
2022-08-01T01:35:08.459Z,18.80
2022-08-01T01:37:39.895Z,18.83
2022-08-01T01:40:11.798Z,18.87
2022-08-01T01:42:42.020Z,18.74
2022-08-01T01:45:12.407Z,19.00
2022-08-01T01:47:42.082Z,18.81
2022-08-01T01:50:13.460Z,19.25
2022-08-01T01:52:45.431Z,19.11
2022-08-01T01:55:15.565Z,18.87
2022-08-01T01:57:44.882Z,19.06
2022-08-01T02:00:16.362Z,19.02
2022-08-01T02:02:45.470Z,19.15
2022-08-01T02:05:15.375Z,18.75
2022-08-01T02:07:44.776Z,19.27
2022-08-01T02:10:15.054Z,19.42
2022-08-01T02:12:46.631Z,19.25
2022-08-01T02:15:17.785Z,19.02
2022-08-01T02:17:49.631Z,18.91
2022-08-01T02:20:18.550Z,18.92
2022-08-01T02:22:52.240Z,18.69
2022-08-01T02:25:24.735Z,18.80
2022-08-01T02:27:59.033Z,18.66
2022-08-01T02:30:32.212Z,18.53
2022-08-01T02:33:03.998Z,18.65
2022-08-01T02:36:31.073Z,18.68
2022-08-01T02:38:29.454Z,18.72
2022-08-01T02:41:02.009Z,18.71
2022-08-01T02:43:32.294Z,18.47
2022-08-01T02:46:04.721Z,17.52
2022-08-01T02:48:37.573Z,18.50
2022-08-01T02:51:08.368Z,18.41
2022-08-01T02:53:44.474Z,18.00
2022-08-01T02:56:15.616Z,18.37
2022-08-01T02:58:45.837Z,18.34
2022-08-01T03:01:17.205Z,18.04
2022-08-01T03:03:48.486Z,17.95
2022-08-01T03:06:17.799Z,17.86
2022-08-01T03:08:47.779Z,18.10
2022-08-01T03:11:16.209Z,18.08
2022-08-01T03:13:46.753Z,17.86
2022-08-01T03:16:18.220Z,17.61
2022-08-01T03:18:47.356Z,17.48
2022-08-01T03:21:16.361Z,17.42
2022-08-01T03:23:48.217Z,16.83
2022-08-01T03:26:17.668Z,17.75
2022-08-01T03:28:48.292Z,17.68
2022-08-01T03:31:18.452Z,17.79
2022-08-01T03:33:46.369Z,17.86
2022-08-01T03:36:17.560Z,17.69
2022-08-01T03:38:47.584Z,17.46
2022-08-01T03:41:22.093Z,17.29
2022-08-01T03:43:57.144Z,17.39
2022-08-01T03:46:37.593Z,17.69
2022-08-01T03:49:11.823Z,17.89
2022-08-01T03:51:40.646Z,17.86
2022-08-01T03:54:11.505Z,17.76
2022-08-01T03:56:40.512Z,17.57
2022-08-01T03:59:08.660Z,17.57
2022-08-01T04:01:38.892Z,17.76
2022-08-01T04:04:07.204Z,17.50
2022-08-01T04:06:35.072Z,17.76
2022-08-01T04:09:02.964Z,17.72
2022-08-01T04:11:31.229Z,17.83
2022-08-01T04:13:59.273Z,18.01
2022-08-01T04:16:27.794Z,18.16
2022-08-01T04:18:57.198Z,18.19
2022-08-01T04:21:28.823Z,18.11
2022-08-01T04:24:00.388Z,18.19
2022-08-01T04:26:30.569Z,18.42
2022-08-01T04:28:59.127Z,18.37
2022-08-01T04:31:30.039Z,18.16
2022-08-01T04:34:04.804Z,18.62
2022-08-01T04:36:35.063Z,18.37
2022-08-01T04:39:05.638Z,18.56
2022-08-01T04:41:34.682Z,18.69
2022-08-01T04:44:03.680Z,18.93
2022-08-01T04:46:32.007Z,18.97
2022-08-01T04:49:02.008Z,19.03
2022-08-01T04:51:29.905Z,19.75
2022-08-01T04:53:58.830Z,20.86
2022-08-01T04:56:26.731Z,21.88
2022-08-01T04:59:08.788Z,22.02
2022-08-01T05:01:36.867Z,21.73
2022-08-01T05:04:07.306Z,21.93
2022-08-01T05:06:35.184Z,21.79
2022-08-01T05:09:03.045Z,21.85
2022-08-01T05:11:31.770Z,22.04
2022-08-01T05:13:59.633Z,22.03
2022-08-01T05:16:27.799Z,22.08
2022-08-01T05:18:55.702Z,22.23
2022-08-01T05:21:24.948Z,22.88
2022-08-01T05:23:52.961Z,24.15
2022-08-01T05:26:22.044Z,25.30
2022-08-01T05:28:49.932Z,25.59
2022-08-01T05:31:17.832Z,25.56
2022-08-01T05:33:45.761Z,25.46
2022-08-01T05:36:13.632Z,25.60
2022-08-01T05:38:42.988Z,25.44
2022-08-01T05:41:10.943Z,25.49
2022-08-01T05:43:38.891Z,25.09
2022-08-01T05:46:06.980Z,24.81
2022-08-01T05:48:34.844Z,24.98
2022-08-01T05:51:02.724Z,25.39
2022-08-01T05:53:30.668Z,25.49
2022-08-01T05:55:59.916Z,25.68
2022-08-01T05:58:27.774Z,26.41
2022-08-01T06:00:55.840Z,26.64
2022-08-01T06:03:23.751Z,26.24
2022-08-01T06:05:53.223Z,26.34
2022-08-01T06:08:21.156Z,26.40
2022-08-01T06:10:49.391Z,26.52
2022-08-01T06:13:19.963Z,26.69
2022-08-01T06:15:48.163Z,26.57
2022-08-01T06:18:16.489Z,26.62
2022-08-01T06:20:44.693Z,26.51
2022-08-01T06:23:31.884Z,25.81
2022-08-01T06:26:00.681Z,26.30
2022-08-01T06:28:30.684Z,26.35
2022-08-01T06:30:59.590Z,26.52
2022-08-01T06:33:27.504Z,26.73
2022-08-01T06:35:55.440Z,27.03
2022-08-01T06:38:23.428Z,27.14
2022-08-01T06:40:51.797Z,26.86
2022-08-01T06:43:20.372Z,27.23
2022-08-01T06:45:50.792Z,27.15
2022-08-01T06:48:18.716Z,27.40
2022-08-01T06:50:46.716Z,27.68
2022-08-01T06:53:14.677Z,27.48
2022-08-01T06:55:42.573Z,27.56
2022-08-01T06:58:10.456Z,27.49
2022-08-01T07:00:38.419Z,26.73
2022-08-01T07:03:08.084Z,26.91
2022-08-01T07:05:35.975Z,27.20
2022-08-01T07:08:03.872Z,26.93
2022-08-01T07:10:31.898Z,27.00
2022-08-01T07:13:00.181Z,27.44
2022-08-01T07:15:28.360Z,27.31
2022-08-01T07:17:57.954Z,27.64
2022-08-01T07:20:27.212Z,27.89
2022-08-01T07:22:56.520Z,27.55
2022-08-01T07:25:24.688Z,27.46
2022-08-01T07:27:52.577Z,27.88
2022-08-01T07:30:20.461Z,27.93
2022-08-01T07:32:48.429Z,28.02
2022-08-01T07:35:16.334Z,27.49
2022-08-01T07:37:48.449Z,27.87
2022-08-01T07:40:18.749Z,27.51
2022-08-01T07:42:46.882Z,27.51
2022-08-01T07:45:15.432Z,27.40
2022-08-01T07:47:44.058Z,27.74
2022-08-01T07:50:13.617Z,28.37
2022-08-01T07:52:41.895Z,28.19
2022-08-01T07:55:12.284Z,28.62
2022-08-01T07:57:44.708Z,27.82
2022-08-01T08:00:14.018Z,27.99
2022-08-01T08:02:42.043Z,27.35
2022-08-01T08:05:10.463Z,27.81
2022-08-01T08:07:40.439Z,28.18
2022-08-01T08:10:09.169Z,28.12
2022-08-01T08:12:38.612Z,28.14
2022-08-01T08:15:07.888Z,27.65
2022-08-01T08:17:36.814Z,28.34
2022-08-01T08:20:09.227Z,28.28
2022-08-01T08:22:38.680Z,27.96
2022-08-01T08:25:08.400Z,28.34
2022-08-01T08:27:37.337Z,27.60
2022-08-01T08:30:09.427Z,28.23
2022-08-01T08:32:37.779Z,28.97
2022-08-01T08:35:07.100Z,28.36
2022-08-01T08:37:38.007Z,28.76
2022-08-01T08:40:12.241Z,28.78
2022-08-01T08:42:41.913Z,28.26
2022-08-01T08:45:12.525Z,28.81
2022-08-01T08:47:41.654Z,28.74
2022-08-01T08:50:09.999Z,28.80
2022-08-01T08:52:40.681Z,28.93
2022-08-01T08:55:10.789Z,29.16
2022-08-01T08:57:42.331Z,28.95
2022-08-01T09:00:13.681Z,29.21
2022-08-01T09:02:44.444Z,29.41
2022-08-01T09:05:18.929Z,29.65
2022-08-01T09:07:47.496Z,29.32
2022-08-01T09:10:15.400Z,28.60
2022-08-01T09:13:07.680Z,28.95
2022-08-01T09:15:47.760Z,29.07
2022-08-01T09:18:30.773Z,29.58
2022-08-01T09:21:19.177Z,29.36
2022-08-01T09:23:53.333Z,28.78
2022-08-01T09:26:23.406Z,28.73
2022-08-01T09:28:52.447Z,29.08
2022-08-01T09:31:21.779Z,29.10
2022-08-01T09:33:52.018Z,29.37
2022-08-01T09:36:20.672Z,29.57
2022-08-01T09:38:50.940Z,29.38
2022-08-01T09:41:19.757Z,30.07
2022-08-01T09:43:52.216Z,29.73
2022-08-01T09:46:23.641Z,30.13
2022-08-01T09:49:01.390Z,29.86
2022-08-01T09:52:00.068Z,29.96
2022-08-01T09:54:30.568Z,30.34
2022-08-01T09:57:10.234Z,30.16
2022-08-01T09:59:57.216Z,30.44
2022-08-01T10:02:34.111Z,29.40
2022-08-01T10:05:08.337Z,29.81
2022-08-01T10:07:43.862Z,30.20
2022-08-01T10:10:14.807Z,30.27
2022-08-01T10:12:45.292Z,29.48
2022-08-01T10:15:17.984Z,29.56
2022-08-01T10:17:54.705Z,29.43
2022-08-01T10:20:29.964Z,29.85
2022-08-01T10:23:02.191Z,30.06
2022-08-01T10:25:43.107Z,30.38
2022-08-01T10:28:23.786Z,30.64
2022-08-01T10:30:53.368Z,30.07
2022-08-01T10:33:52.699Z,29.99
2022-08-01T10:36:13.633Z,30.16
2022-08-01T10:38:42.356Z,30.59
2022-08-01T10:41:12.258Z,30.27
2022-08-01T10:43:41.401Z,29.38
2022-08-01T10:46:13.884Z,29.15
2022-08-01T10:48:49.396Z,29.86
2022-08-01T10:51:22.469Z,30.17
2022-08-01T10:54:12.407Z,29.80
2022-08-01T10:56:43.510Z,30.48
2022-08-01T10:59:12.018Z,31.20
2022-08-01T11:01:45.084Z,30.52
2022-08-01T11:04:17.657Z,30.94
2022-08-01T11:07:05.882Z,31.50
2022-08-01T11:09:49.515Z,30.67
2022-08-01T11:12:23.577Z,30.30
2022-08-01T11:15:35.655Z,30.33
2022-08-01T11:18:05.740Z,30.13
2022-08-01T11:20:42.044Z,31.07
2022-08-01T11:23:20.356Z,31.42
2022-08-01T11:26:13.943Z,31.33
2022-08-01T11:29:04.750Z,30.95
2022-08-01T11:31:37.180Z,30.66
2022-08-01T11:34:06.058Z,30.97
2022-08-01T11:39:23.373Z,31.13
2022-08-01T11:41:53.687Z,30.45
2022-08-01T11:44:34.516Z,31.17
2022-08-01T11:47:09.761Z,31.47
2022-08-01T11:50:00.632Z,31.13
2022-08-01T11:52:34.557Z,31.20
2022-08-01T11:55:10.110Z,31.19
2022-08-01T11:57:39.611Z,30.84
2022-08-01T12:00:15.388Z,30.79
2022-08-01T12:02:46.216Z,31.17
2022-08-01T12:05:17.564Z,31.05
2022-08-01T12:07:51.233Z,30.92
2022-08-01T12:10:20.611Z,30.52
2022-08-01T12:12:50.468Z,30.78
2022-08-01T12:15:19.933Z,30.87
2022-08-01T12:17:57.935Z,30.46
2022-08-01T12:20:31.403Z,30.17
2022-08-01T12:23:02.621Z,30.33
2022-08-01T12:25:31.198Z,30.36
2022-08-01T12:28:03.934Z,30.11
2022-08-01T12:30:36.218Z,30.52
2022-08-01T12:33:06.083Z,29.98
2022-08-01T12:35:34.810Z,29.95
2022-08-01T12:38:06.448Z,29.98
2022-08-01T12:40:36.138Z,29.21
2022-08-01T12:43:06.136Z,28.83
2022-08-01T12:45:37.509Z,29.12
2022-08-01T12:48:09.909Z,29.38
2022-08-01T12:50:40.352Z,29.23
2022-08-01T12:53:11.041Z,28.99
2022-08-01T12:55:59.504Z,28.80
2022-08-01T12:58:33.619Z,29.10
2022-08-01T13:01:06.549Z,28.67
2022-08-01T13:03:34.767Z,29.04
2022-08-01T13:06:02.990Z,28.97
2022-08-01T13:08:34.621Z,28.97
2022-08-01T13:11:05.792Z,29.02
2022-08-01T13:13:40.675Z,28.39
2022-08-01T13:16:15.470Z,28.29
2022-08-01T13:18:51.527Z,28.27
2022-08-01T13:21:21.208Z,28.27
2022-08-01T13:24:06.268Z,28.26
2022-08-01T13:26:41.790Z,28.05
2022-08-01T13:29:11.149Z,28.12
2022-08-01T13:31:40.956Z,28.38
2022-08-01T13:34:09.597Z,28.11
2022-08-01T13:36:37.982Z,28.33
2022-08-01T13:39:25.510Z,28.54
2022-08-01T13:41:54.199Z,29.46
2022-08-01T13:44:22.346Z,29.66
2022-08-01T13:46:51.248Z,29.87
2022-08-01T13:49:20.176Z,28.87
2022-08-01T13:51:50.949Z,28.35
2022-08-01T13:54:20.389Z,28.25
2022-08-01T13:56:48.290Z,27.73
2022-08-01T13:59:16.141Z,28.00
2022-08-01T14:01:44.318Z,27.90
2022-08-01T14:04:12.275Z,27.74
2022-08-01T14:06:40.221Z,27.60
2022-08-01T14:09:18.191Z,27.39
2022-08-01T14:11:54.050Z,27.72
2022-08-01T14:14:22.011Z,27.59
2022-08-01T14:16:50.177Z,27.47
2022-08-01T14:19:19.299Z,27.19
2022-08-01T14:21:53.427Z,27.57
2022-08-01T14:24:21.320Z,27.47
2022-08-01T14:26:49.189Z,27.72
2022-08-01T14:29:18.458Z,27.71
2022-08-01T14:31:46.659Z,27.60
2022-08-01T14:34:15.029Z,27.58
2022-08-01T14:36:43.741Z,27.62
2022-08-01T14:39:14.935Z,27.62
2022-08-01T14:41:43.097Z,27.60
2022-08-01T14:44:13.439Z,27.59
2022-08-01T14:46:58.130Z,27.46
2022-08-01T14:49:26.790Z,27.65
2022-08-01T14:51:54.733Z,27.56
2022-08-01T14:54:26.767Z,27.74
2022-08-01T14:56:57.168Z,27.83
2022-08-01T14:59:25.293Z,27.93
2022-08-01T15:01:54.571Z,27.94
2022-08-01T15:04:22.584Z,27.85
2022-08-01T15:06:50.433Z,27.76
2022-08-01T15:09:18.338Z,27.62
2022-08-01T15:11:47.919Z,27.36
2022-08-01T15:14:33.044Z,27.24
2022-08-01T15:17:02.474Z,27.28
2022-08-01T15:19:30.383Z,27.29
2022-08-01T15:21:58.295Z,27.24
2022-08-01T15:24:29.433Z,27.28
2022-08-01T15:26:57.348Z,27.24
2022-08-01T15:29:25.260Z,26.58
2022-08-01T15:31:53.165Z,27.16
2022-08-01T15:34:22.417Z,27.45
2022-08-01T15:36:50.340Z,27.44
2022-08-01T15:39:18.705Z,27.12
2022-08-01T15:41:46.677Z,26.95
2022-08-01T15:44:14.781Z,26.82
2022-08-01T15:46:42.857Z,26.43
2022-08-01T15:49:11.778Z,27.20
2022-08-01T15:51:41.228Z,27.11
2022-08-01T15:54:14.490Z,27.20
2022-08-01T15:56:42.797Z,27.17
2022-08-01T15:59:10.740Z,27.15
2022-08-01T16:01:38.840Z,27.20
2022-08-01T16:04:07.554Z,26.24
2022-08-01T16:06:36.667Z,27.14
2022-08-01T16:09:06.569Z,27.15
2022-08-01T16:11:37.445Z,26.78
2022-08-01T16:14:07.887Z,27.09
2022-08-01T16:16:35.903Z,26.96
2022-08-01T16:19:05.237Z,26.91
2022-08-01T16:21:33.363Z,26.69
2022-08-01T16:24:01.267Z,26.82
2022-08-01T16:26:30.548Z,26.83
2022-08-01T16:28:58.441Z,26.80
2022-08-01T16:31:37.561Z,26.73
2022-08-01T16:34:15.221Z,26.72
2022-08-01T16:36:43.407Z,26.51
2022-08-01T16:39:11.483Z,26.78
2022-08-01T16:41:40.779Z,26.76
2022-08-01T16:44:08.694Z,26.77
2022-08-01T16:46:36.620Z,26.79
2022-08-01T16:49:06.628Z,26.69
2022-08-01T16:51:40.736Z,26.67
2022-08-01T16:54:25.323Z,26.66
2022-08-01T16:57:08.080Z,26.57
2022-08-01T16:59:41.727Z,26.41
2022-08-01T17:02:11.146Z,26.52
2022-08-01T17:04:39.148Z,26.46
2022-08-01T17:07:07.334Z,26.30
2022-08-01T17:09:38.656Z,26.44
2022-08-01T17:12:14.376Z,26.42
2022-08-01T17:14:50.503Z,26.32
2022-08-01T17:17:18.421Z,26.35
2022-08-01T17:19:46.520Z,26.35
2022-08-01T17:22:14.440Z,26.32
2022-08-01T17:24:42.352Z,26.30
2022-08-01T17:27:13.024Z,26.17
2022-08-01T17:29:44.034Z,25.22
2022-08-01T17:32:13.236Z,26.14
2022-08-01T17:34:41.316Z,26.07
2022-08-01T17:37:09.828Z,26.07
2022-08-01T17:39:38.771Z,26.03
2022-08-01T17:42:08.287Z,25.94
2022-08-01T17:44:36.279Z,25.91
2022-08-01T17:47:07.553Z,25.87
2022-08-01T17:52:26.174Z,25.73
2022-08-01T17:54:58.112Z,25.67
2022-08-01T17:57:26.504Z,25.27
2022-08-01T17:59:54.443Z,25.57
2022-08-01T18:02:23.708Z,25.51
2022-08-01T18:04:52.919Z,25.23
2022-08-01T18:08:01.934Z,25.46
2022-08-01T18:10:11.527Z,25.39
2022-08-01T18:12:40.133Z,25.35
2022-08-01T18:15:08.880Z,25.15
2022-08-01T18:17:38.283Z,25.18
2022-08-01T18:20:07.479Z,25.14
2022-08-01T18:22:35.384Z,24.97
2022-08-01T18:25:08.787Z,24.99
2022-08-01T18:28:23.491Z,24.93
2022-08-01T18:30:25.295Z,24.87
2022-08-01T18:32:55.955Z,24.74
2022-08-01T18:35:25.650Z,24.66
2022-08-01T18:38:12.555Z,24.29
2022-08-01T18:40:41.665Z,24.57
2022-08-01T18:43:09.550Z,24.55
2022-08-01T18:45:42.270Z,24.48
2022-08-01T18:48:12.429Z,24.27
2022-08-01T18:50:40.634Z,24.34
2022-08-01T18:53:08.622Z,24.32
2022-08-01T18:55:36.561Z,23.98
2022-08-01T18:58:04.639Z,23.78
2022-08-01T19:00:32.781Z,24.25
2022-08-01T19:03:00.685Z,24.23
2022-08-01T19:05:31.794Z,24.16
2022-08-01T19:08:05.913Z,24.05
2022-08-01T19:10:35.092Z,24.10
2022-08-01T19:13:03.147Z,24.01
2022-08-01T19:15:31.401Z,23.92
2022-08-01T19:17:59.323Z,24.00
2022-08-01T19:20:27.631Z,24.09
2022-08-01T19:22:57.368Z,24.03
2022-08-01T19:25:25.417Z,23.91
2022-08-01T19:27:55.666Z,24.06
2022-08-01T19:30:23.806Z,23.77
2022-08-01T19:32:52.049Z,23.77
2022-08-01T19:35:20.518Z,23.83
2022-08-01T19:37:52.500Z,23.82
2022-08-01T19:40:26.372Z,23.67
2022-08-01T19:42:56.189Z,22.72
2022-08-01T19:45:24.659Z,23.69
2022-08-01T19:47:56.828Z,23.19
2022-08-01T19:50:26.325Z,23.66
2022-08-01T19:52:55.458Z,23.66
2022-08-01T19:55:25.025Z,23.63
2022-08-01T19:58:17.378Z,23.60
2022-08-01T20:00:43.768Z,23.56
2022-08-01T20:03:16.093Z,23.49
2022-08-01T20:05:45.039Z,23.34
2022-08-01T20:08:13.604Z,23.32
2022-08-01T20:10:43.022Z,23.18
2022-08-01T20:13:12.009Z,23.30
2022-08-01T20:15:40.183Z,22.67
2022-08-01T20:18:08.125Z,23.31
2022-08-01T20:20:37.901Z,23.31
2022-08-01T20:23:18.387Z,23.23
2022-08-01T20:25:53.251Z,22.67
2022-08-01T20:28:27.138Z,23.05
2022-08-01T20:31:01.095Z,23.04
2022-08-01T20:33:32.100Z,22.89
2022-08-01T20:36:02.213Z,22.94
2022-08-01T20:38:31.702Z,22.87
2022-08-01T20:41:04.271Z,22.25
2022-08-01T20:43:32.413Z,22.36
2022-08-01T20:46:00.678Z,22.70
2022-08-01T20:48:29.604Z,22.52
2022-08-01T20:51:16.560Z,22.61
2022-08-01T20:53:49.012Z,22.40
2022-08-01T20:56:26.894Z,22.54
2022-08-01T20:59:04.407Z,22.46
2022-08-01T21:01:39.993Z,22.40
2022-08-01T21:04:19.327Z,22.07
2022-08-01T21:06:54.102Z,22.18
2022-08-01T21:09:25.047Z,22.38
2022-08-01T21:12:03.253Z,22.26
2022-08-01T21:14:47.392Z,21.76
2022-08-01T21:17:19.690Z,22.33
2022-08-01T21:19:55.575Z,22.13
2022-08-01T21:22:34.091Z,22.10
2022-08-01T21:25:07.017Z,22.20
2022-08-01T21:27:37.440Z,22.19
2022-08-01T21:30:08.385Z,22.18
2022-08-01T21:32:37.558Z,22.15
2022-08-01T21:35:15.985Z,22.10
2022-08-01T21:37:52.126Z,22.12
2022-08-01T21:40:21.981Z,21.74
2022-08-01T21:42:53.134Z,21.73
2022-08-01T21:45:23.160Z,21.90
2022-08-01T21:47:52.141Z,21.90
2022-08-01T21:50:20.162Z,21.94
2022-08-01T21:52:50.809Z,21.93
2022-08-01T21:55:35.112Z,21.97
2022-08-01T21:58:17.078Z,22.04
2022-08-01T22:00:51.008Z,22.10
2022-08-01T22:03:24.769Z,22.01
2022-08-01T22:05:55.073Z,22.05
2022-08-01T22:08:29.818Z,21.95
2022-08-01T22:11:04.296Z,22.06
2022-08-01T22:13:34.608Z,22.12
2022-08-01T22:16:04.215Z,22.02
2022-08-01T22:18:34.027Z,21.94
2022-08-01T22:21:03.421Z,21.50
2022-08-01T22:23:35.752Z,21.77
2022-08-01T22:26:08.326Z,21.67
2022-08-01T22:28:39.064Z,21.55
2022-08-01T22:31:07.845Z,21.57
2022-08-01T22:33:37.216Z,21.48
2022-08-01T22:36:06.392Z,21.49
2022-08-01T22:38:35.256Z,21.56
2022-08-01T22:41:05.829Z,21.03
2022-08-01T22:43:46.784Z,21.37
2022-08-01T22:46:26.233Z,21.29
2022-08-01T22:49:00.661Z,21.26
2022-08-01T22:51:35.680Z,21.16
2022-08-01T22:54:06.391Z,21.09
2022-08-01T22:56:39.152Z,20.99
2022-08-01T22:59:14.820Z,20.68
2022-08-01T23:01:47.895Z,20.94
2022-08-01T23:04:28.794Z,20.97
2022-08-01T23:07:05.416Z,20.84
2022-08-01T23:09:48.187Z,20.79
2022-08-01T23:12:25.320Z,20.73
2022-08-01T23:14:56.632Z,20.34
2022-08-01T23:17:28.150Z,19.97
2022-08-01T23:19:58.458Z,19.85
2022-08-01T23:22:31.370Z,19.72
2022-08-01T23:25:05.057Z,19.69
2022-08-01T23:27:51.689Z,19.64
2022-08-01T23:30:25.988Z,19.66
2022-08-01T23:32:53.905Z,19.76
2022-08-01T23:35:22.000Z,19.87
2022-08-01T23:37:51.194Z,19.92
2022-08-01T23:40:19.608Z,19.51
2022-08-01T23:42:47.640Z,19.90
2022-08-01T23:45:15.700Z,19.62
2022-08-01T23:47:44.941Z,19.92
2022-08-01T23:50:12.851Z,19.86
2022-08-01T23:52:48.242Z,19.17
2022-08-01T23:55:17.871Z,19.38
2022-08-01T23:57:45.815Z,19.20
